sensor_id;sensor_type;location;lat;lon;timestamp;P1;durP1;ratioP1;P2;durP2;ratioP2
38909;SDS011;24676;51.360;12.354;2023-05-09T00:35:14;3.47;;;2.75;;
38909;SDS011;24676;51.360;12.354;2023-05-09T00:37:59;4.95;;;3.92;;
38909;SDS011;24676;51.360;12.354;2023-05-09T00:40:43;5.35;;;3.13;;
38909;SDS011;24676;51.360;12.354;2023-05-09T00:43:27;3.75;;;2.63;;
38909;SDS011;24676;51.360;12.354;2023-05-09T00:46:11;3.63;;;2.67;;
38909;SDS011;24676;51.360;12.354;2023-05-09T00:48:56;5.25;;;2.45;;
38909;SDS011;24676;51.360;12.354;2023-05-09T00:51:40;4.38;;;3.75;;
38909;SDS011;24676;51.360;12.354;2023-05-09T00:54:24;5.05;;;3.05;;
38909;SDS011;24676;51.360;12.354;2023-05-09T00:57:09;5.82;;;2.90;;
38909;SDS011;24676;51.360;12.354;2023-05-09T00:59:53;4.55;;;2.90;;
38909;SDS011;24676;51.360;12.354;2023-05-09T01:02:42;4.78;;;3.03;;
38909;SDS011;24676;51.360;12.354;2023-05-09T01:05:39;3.20;;;2.78;;
38909;SDS011;24676;51.360;12.354;2023-05-09T01:08:45;5.00;;;3.08;;
38909;SDS011;24676;51.360;12.354;2023-05-09T01:17:57;3.22;;;2.55;;
38909;SDS011;24676;51.360;12.354;2023-05-09T01:20:50;3.85;;;2.53;;
38909;SDS011;24676;51.360;12.354;2023-05-09T01:26:45;6.53;;;2.63;;
38909;SDS011;24676;51.360;12.354;2023-05-09T01:30:07;8.82;;;3.90;;
38909;SDS011;24676;51.360;12.354;2023-05-09T01:32:56;4.93;;;2.53;;
38909;SDS011;24676;51.360;12.354;2023-05-09T01:35:43;4.18;;;2.60;;
38909;SDS011;24676;51.360;12.354;2023-05-09T01:38:32;4.47;;;3.85;;
38909;SDS011;24676;51.360;12.354;2023-05-09T01:41:20;4.35;;;3.08;;
38909;SDS011;24676;51.360;12.354;2023-05-09T01:44:08;5.32;;;3.72;;
38909;SDS011;24676;51.360;12.354;2023-05-09T01:46:54;6.13;;;2.70;;
38909;SDS011;24676;51.360;12.354;2023-05-09T01:49:38;3.10;;;2.28;;
38909;SDS011;24676;51.360;12.354;2023-05-09T01:52:25;4.40;;;2.78;;
38909;SDS011;24676;51.360;12.354;2023-05-09T01:55:10;5.72;;;2.65;;
38909;SDS011;24676;51.360;12.354;2023-05-09T01:57:56;5.47;;;3.20;;
38909;SDS011;24676;51.360;12.354;2023-05-09T02:03:26;5.47;;;3.17;;
38909;SDS011;24676;51.360;12.354;2023-05-09T02:06:11;4.53;;;3.58;;
38909;SDS011;24676;51.360;12.354;2023-05-09T02:08:58;9.52;;;3.75;;
38909;SDS011;24676;51.360;12.354;2023-05-09T02:11:44;3.17;;;2.92;;
38909;SDS011;24676;51.360;12.354;2023-05-09T02:14:29;3.70;;;2.65;;
38909;SDS011;24676;51.360;12.354;2023-05-09T02:17:14;3.92;;;2.53;;
38909;SDS011;24676;51.360;12.354;2023-05-09T02:19:59;5.25;;;2.67;;
38909;SDS011;24676;51.360;12.354;2023-05-09T02:22:44;4.47;;;2.58;;
38909;SDS011;24676;51.360;12.354;2023-05-09T02:25:29;3.38;;;2.78;;
38909;SDS011;24676;51.360;12.354;2023-05-09T02:28:15;3.88;;;2.25;;
38909;SDS011;24676;51.360;12.354;2023-05-09T02:31:02;3.75;;;2.50;;
38909;SDS011;24676;51.360;12.354;2023-05-09T02:33:49;3.53;;;3.17;;
38909;SDS011;24676;51.360;12.354;2023-05-09T02:36:35;4.38;;;2.53;;
38909;SDS011;24676;51.360;12.354;2023-05-09T02:39:21;2.78;;;2.00;;
38909;SDS011;24676;51.360;12.354;2023-05-09T02:42:07;3.58;;;3.15;;
38909;SDS011;24676;51.360;12.354;2023-05-09T02:44:53;3.35;;;3.15;;
38909;SDS011;24676;51.360;12.354;2023-05-09T02:47:37;3.72;;;2.75;;
38909;SDS011;24676;51.360;12.354;2023-05-09T02:50:22;2.33;;;2.13;;
38909;SDS011;24676;51.360;12.354;2023-05-09T02:53:06;3.67;;;2.70;;
38909;SDS011;24676;51.360;12.354;2023-05-09T02:55:50;3.85;;;2.75;;
38909;SDS011;24676;51.360;12.354;2023-05-09T02:58:36;2.53;;;2.33;;
38909;SDS011;24676;51.360;12.354;2023-05-09T03:01:21;2.38;;;2.10;;
38909;SDS011;24676;51.360;12.354;2023-05-09T03:04:05;3.35;;;2.17;;
38909;SDS011;24676;51.360;12.354;2023-05-09T03:06:49;3.42;;;2.15;;
38909;SDS011;24676;51.360;12.354;2023-05-09T03:09:34;4.25;;;2.70;;
38909;SDS011;24676;51.360;12.354;2023-05-09T03:12:18;4.40;;;2.22;;
38909;SDS011;24676;51.360;12.354;2023-05-09T03:15:02;15.15;;;1.58;;
38909;SDS011;24676;51.360;12.354;2023-05-09T03:17:48;2.72;;;2.53;;
38909;SDS011;24676;51.360;12.354;2023-05-09T03:20:32;2.55;;;1.90;;
38909;SDS011;24676;51.360;12.354;2023-05-09T03:23:16;4.03;;;3.83;;
38909;SDS011;24676;51.360;12.354;2023-05-09T03:26:00;3.42;;;2.42;;
38909;SDS011;24676;51.360;12.354;2023-05-09T03:28:45;2.92;;;2.10;;
38909;SDS011;24676;51.360;12.354;2023-05-09T03:31:29;5.50;;;2.38;;
38909;SDS011;24676;51.360;12.354;2023-05-09T03:34:14;2.83;;;2.38;;
38909;SDS011;24676;51.360;12.354;2023-05-09T03:36:58;2.55;;;2.35;;
38909;SDS011;24676;51.360;12.354;2023-05-09T03:39:43;4.53;;;2.40;;
38909;SDS011;24676;51.360;12.354;2023-05-09T03:42:28;4.57;;;2.58;;
38909;SDS011;24676;51.360;12.354;2023-05-09T03:45:12;1.88;;;1.40;;
38909;SDS011;24676;51.360;12.354;2023-05-09T03:47:56;3.42;;;2.28;;
38909;SDS011;24676;51.360;12.354;2023-05-09T03:50:41;3.85;;;2.53;;
38909;SDS011;24676;51.360;12.354;2023-05-09T03:53:25;5.28;;;3.65;;
38909;SDS011;24676;51.360;12.354;2023-05-09T03:56:09;2.55;;;1.75;;
38909;SDS011;24676;51.360;12.354;2023-05-09T03:58:54;5.80;;;1.88;;
38909;SDS011;24676;51.360;12.354;2023-05-09T04:01:38;7.20;;;2.85;;
38909;SDS011;24676;51.360;12.354;2023-05-09T04:04:22;6.90;;;2.28;;
38909;SDS011;24676;51.360;12.354;2023-05-09T04:07:06;3.47;;;3.08;;
38909;SDS011;24676;51.360;12.354;2023-05-09T04:09:51;5.20;;;3.30;;
38909;SDS011;24676;51.360;12.354;2023-05-09T04:12:35;5.35;;;2.58;;
38909;SDS011;24676;51.360;12.354;2023-05-09T04:15:19;4.63;;;2.38;;
38909;SDS011;24676;51.360;12.354;2023-05-09T04:18:03;2.80;;;2.47;;
38909;SDS011;24676;51.360;12.354;2023-05-09T04:20:48;3.22;;;2.15;;
38909;SDS011;24676;51.360;12.354;2023-05-09T04:23:32;4.60;;;2.45;;
38909;SDS011;24676;51.360;12.354;2023-05-09T04:26:17;2.38;;;2.22;;
38909;SDS011;24676;51.360;12.354;2023-05-09T04:29:01;3.45;;;2.35;;
38909;SDS011;24676;51.360;12.354;2023-05-09T04:31:45;6.13;;;2.83;;
38909;SDS011;24676;51.360;12.354;2023-05-09T04:34:29;6.57;;;2.45;;
38909;SDS011;24676;51.360;12.354;2023-05-09T04:37:14;3.40;;;2.55;;
38909;SDS011;24676;51.360;12.354;2023-05-09T04:39:58;4.15;;;3.20;;
38909;SDS011;24676;51.360;12.354;2023-05-09T04:42:42;4.60;;;2.88;;
38909;SDS011;24676;51.360;12.354;2023-05-09T04:45:26;5.82;;;3.80;;
38909;SDS011;24676;51.360;12.354;2023-05-09T04:50:54;3.45;;;2.10;;
38909;SDS011;24676;51.360;12.354;2023-05-09T04:53:38;4.40;;;1.98;;
38909;SDS011;24676;51.360;12.354;2023-05-09T04:56:22;8.43;;;2.30;;
38909;SDS011;24676;51.360;12.354;2023-05-09T04:59:06;2.33;;;2.13;;
38909;SDS011;24676;51.360;12.354;2023-05-09T05:01:51;2.08;;;1.88;;
38909;SDS011;24676;51.360;12.354;2023-05-09T05:04:35;3.17;;;1.88;;
38909;SDS011;24676;51.360;12.354;2023-05-09T05:07:19;3.10;;;2.00;;
38909;SDS011;24676;51.360;12.354;2023-05-09T05:10:03;4.13;;;2.10;;
38909;SDS011;24676;51.360;12.354;2023-05-09T05:12:48;2.92;;;1.50;;
38909;SDS011;24676;51.360;12.354;2023-05-09T05:15:33;2.83;;;2.03;;
38909;SDS011;24676;51.360;12.354;2023-05-09T05:18:17;3.15;;;2.25;;
38909;SDS011;24676;51.360;12.354;2023-05-09T05:21:01;5.53;;;2.50;;
38909;SDS011;24676;51.360;12.354;2023-05-09T05:23:46;4.28;;;1.70;;
38909;SDS011;24676;51.360;12.354;2023-05-09T05:26:30;5.88;;;1.70;;
38909;SDS011;24676;51.360;12.354;2023-05-09T05:29:14;3.13;;;1.90;;
38909;SDS011;24676;51.360;12.354;2023-05-09T05:31:59;3.10;;;1.80;;
38909;SDS011;24676;51.360;12.354;2023-05-09T05:34:42;2.97;;;2.08;;
38909;SDS011;24676;51.360;12.354;2023-05-09T05:37:27;2.22;;;1.25;;
38909;SDS011;24676;51.360;12.354;2023-05-09T05:40:11;3.28;;;2.50;;
38909;SDS011;24676;51.360;12.354;2023-05-09T05:42:55;1.55;;;1.40;;
38909;SDS011;24676;51.360;12.354;2023-05-09T05:45:40;4.47;;;2.28;;
38909;SDS011;24676;51.360;12.354;2023-05-09T05:48:24;2.13;;;1.60;;
38909;SDS011;24676;51.360;12.354;2023-05-09T05:51:09;4.07;;;2.13;;
38909;SDS011;24676;51.360;12.354;2023-05-09T05:53:53;3.20;;;1.90;;
38909;SDS011;24676;51.360;12.354;2023-05-09T05:56:37;3.33;;;2.25;;
38909;SDS011;24676;51.360;12.354;2023-05-09T05:59:21;4.68;;;2.70;;
38909;SDS011;24676;51.360;12.354;2023-05-09T06:02:06;6.85;;;1.75;;
38909;SDS011;24676;51.360;12.354;2023-05-09T06:04:50;3.30;;;2.20;;
38909;SDS011;24676;51.360;12.354;2023-05-09T06:07:34;1.77;;;1.67;;
38909;SDS011;24676;51.360;12.354;2023-05-09T06:10:18;3.13;;;2.15;;
38909;SDS011;24676;51.360;12.354;2023-05-09T06:13:02;3.70;;;2.45;;
38909;SDS011;24676;51.360;12.354;2023-05-09T06:15:46;2.83;;;2.08;;
38909;SDS011;24676;51.360;12.354;2023-05-09T06:18:30;1.75;;;1.50;;
38909;SDS011;24676;51.360;12.354;2023-05-09T06:21:14;2.78;;;1.60;;
38909;SDS011;24676;51.360;12.354;2023-05-09T06:23:58;3.33;;;1.77;;
38909;SDS011;24676;51.360;12.354;2023-05-09T06:26:44;2.25;;;1.58;;
38909;SDS011;24676;51.360;12.354;2023-05-09T06:29:28;1.92;;;1.65;;
38909;SDS011;24676;51.360;12.354;2023-05-09T06:32:12;2.72;;;1.35;;
38909;SDS011;24676;51.360;12.354;2023-05-09T06:34:57;3.78;;;1.40;;
38909;SDS011;24676;51.360;12.354;2023-05-09T06:37:41;2.65;;;1.63;;
38909;SDS011;24676;51.360;12.354;2023-05-09T06:40:25;1.85;;;1.42;;
38909;SDS011;24676;51.360;12.354;2023-05-09T06:43:09;2.58;;;1.55;;
38909;SDS011;24676;51.360;12.354;2023-05-09T06:45:53;2.90;;;1.58;;
38909;SDS011;24676;51.360;12.354;2023-05-09T06:48:37;2.78;;;1.90;;
38909;SDS011;24676;51.360;12.354;2023-05-09T06:51:21;2.45;;;2.20;;
38909;SDS011;24676;51.360;12.354;2023-05-09T06:54:05;2.33;;;1.80;;
38909;SDS011;24676;51.360;12.354;2023-05-09T06:56:50;3.13;;;1.48;;
38909;SDS011;24676;51.360;12.354;2023-05-09T06:59:34;2.10;;;1.52;;
38909;SDS011;24676;51.360;12.354;2023-05-09T07:02:18;2.30;;;1.67;;
38909;SDS011;24676;51.360;12.354;2023-05-09T07:05:03;2.15;;;1.67;;
38909;SDS011;24676;51.360;12.354;2023-05-09T07:07:47;2.63;;;1.52;;
38909;SDS011;24676;51.360;12.354;2023-05-09T07:10:31;4.95;;;2.00;;
38909;SDS011;24676;51.360;12.354;2023-05-09T07:13:15;1.65;;;1.42;;
38909;SDS011;24676;51.360;12.354;2023-05-09T07:15:59;2.30;;;2.03;;
38909;SDS011;24676;51.360;12.354;2023-05-09T07:18:43;1.95;;;1.27;;
38909;SDS011;24676;51.360;12.354;2023-05-09T07:21:27;2.30;;;1.20;;
38909;SDS011;24676;51.360;12.354;2023-05-09T07:24:11;2.05;;;1.83;;
38909;SDS011;24676;51.360;12.354;2023-05-09T07:26:55;1.23;;;1.13;;
38909;SDS011;24676;51.360;12.354;2023-05-09T07:29:39;2.30;;;1.30;;
38909;SDS011;24676;51.360;12.354;2023-05-09T07:32:23;5.30;;;1.88;;
38909;SDS011;24676;51.360;12.354;2023-05-09T07:35:09;4.22;;;1.75;;
38909;SDS011;24676;51.360;12.354;2023-05-09T07:37:54;4.35;;;1.55;;
38909;SDS011;24676;51.360;12.354;2023-05-09T07:40:38;2.22;;;1.77;;
38909;SDS011;24676;51.360;12.354;2023-05-09T07:43:23;5.22;;;1.77;;
38909;SDS011;24676;51.360;12.354;2023-05-09T07:46:08;2.15;;;1.52;;
38909;SDS011;24676;51.360;12.354;2023-05-09T07:48:52;3.15;;;1.75;;
38909;SDS011;24676;51.360;12.354;2023-05-09T07:51:36;2.53;;;1.45;;
38909;SDS011;24676;51.360;12.354;2023-05-09T07:54:20;6.68;;;1.77;;
38909;SDS011;24676;51.360;12.354;2023-05-09T07:57:04;3.72;;;2.40;;
38909;SDS011;24676;51.360;12.354;2023-05-09T07:59:48;2.15;;;1.95;;
38909;SDS011;24676;51.360;12.354;2023-05-09T08:02:33;1.45;;;1.35;;
38909;SDS011;24676;51.360;12.354;2023-05-09T08:05:17;2.70;;;1.42;;
38909;SDS011;24676;51.360;12.354;2023-05-09T08:08:02;6.00;;;2.28;;
38909;SDS011;24676;51.360;12.354;2023-05-09T08:10:46;3.30;;;1.52;;
38909;SDS011;24676;51.360;12.354;2023-05-09T08:13:30;2.38;;;1.20;;
38909;SDS011;24676;51.360;12.354;2023-05-09T08:16:15;3.08;;;1.60;;
38909;SDS011;24676;51.360;12.354;2023-05-09T08:18:59;1.88;;;1.52;;
38909;SDS011;24676;51.360;12.354;2023-05-09T08:21:44;3.42;;;1.75;;
38909;SDS011;24676;51.360;12.354;2023-05-09T08:24:28;1.40;;;1.30;;
38909;SDS011;24676;51.360;12.354;2023-05-09T08:27:14;2.50;;;1.20;;
38909;SDS011;24676;51.360;12.354;2023-05-09T08:29:59;2.03;;;1.80;;
38909;SDS011;24676;51.360;12.354;2023-05-09T08:32:43;3.05;;;2.25;;
38909;SDS011;24676;51.360;12.354;2023-05-09T08:35:27;2.20;;;2.00;;
38909;SDS011;24676;51.360;12.354;2023-05-09T08:38:12;2.92;;;1.25;;
38909;SDS011;24676;51.360;12.354;2023-05-09T08:41:00;2.58;;;1.80;;
38909;SDS011;24676;51.360;12.354;2023-05-09T08:43:45;4.07;;;1.52;;
38909;SDS011;24676;51.360;12.354;2023-05-09T08:46:30;1.92;;;1.75;;
38909;SDS011;24676;51.360;12.354;2023-05-09T08:49:19;4.68;;;1.98;;
38909;SDS011;24676;51.360;12.354;2023-05-09T08:52:03;2.58;;;1.38;;
38909;SDS011;24676;51.360;12.354;2023-05-09T08:54:48;1.42;;;1.33;;
38909;SDS011;24676;51.360;12.354;2023-05-09T08:57:34;1.52;;;1.40;;
38909;SDS011;24676;51.360;12.354;2023-05-09T09:00:18;2.05;;;1.20;;
38909;SDS011;24676;51.360;12.354;2023-05-09T09:03:04;1.45;;;1.10;;
38909;SDS011;24676;51.360;12.354;2023-05-09T09:05:50;2.13;;;1.27;;
38909;SDS011;24676;51.360;12.354;2023-05-09T09:08:36;1.30;;;1.20;;
38909;SDS011;24676;51.360;12.354;2023-05-09T09:11:20;1.48;;;0.98;;
38909;SDS011;24676;51.360;12.354;2023-05-09T09:14:06;2.28;;;1.67;;
38909;SDS011;24676;51.360;12.354;2023-05-09T09:16:59;3.35;;;1.63;;
38909;SDS011;24676;51.360;12.354;2023-05-09T09:19:44;1.83;;;1.33;;
38909;SDS011;24676;51.360;12.354;2023-05-09T09:22:32;1.00;;;1.00;;
38909;SDS011;24676;51.360;12.354;2023-05-09T09:25:18;1.70;;;1.20;;
38909;SDS011;24676;51.360;12.354;2023-05-09T09:28:03;1.80;;;1.30;;
38909;SDS011;24676;51.360;12.354;2023-05-09T09:30:47;2.30;;;1.48;;
38909;SDS011;24676;51.360;12.354;2023-05-09T09:33:32;2.65;;;1.63;;
38909;SDS011;24676;51.360;12.354;2023-05-09T09:36:25;3.53;;;1.25;;
38909;SDS011;24676;51.360;12.354;2023-05-09T09:39:12;2.00;;;1.65;;
38909;SDS011;24676;51.360;12.354;2023-05-09T09:41:57;1.65;;;1.40;;
38909;SDS011;24676;51.360;12.354;2023-05-09T09:45:01;2.92;;;1.80;;
38909;SDS011;24676;51.360;12.354;2023-05-09T09:47:46;3.40;;;1.45;;
38909;SDS011;24676;51.360;12.354;2023-05-09T09:50:32;1.23;;;1.15;;
38909;SDS011;24676;51.360;12.354;2023-05-09T09:53:16;1.65;;;1.20;;
38909;SDS011;24676;51.360;12.354;2023-05-09T09:56:03;1.38;;;1.27;;
38909;SDS011;24676;51.360;12.354;2023-05-09T09:58:47;2.08;;;1.40;;
38909;SDS011;24676;51.360;12.354;2023-05-09T10:01:32;1.23;;;1.10;;
38909;SDS011;24676;51.360;12.354;2023-05-09T10:04:16;2.20;;;1.60;;
38909;SDS011;24676;51.360;12.354;2023-05-09T10:07:01;1.80;;;1.48;;
38909;SDS011;24676;51.360;12.354;2023-05-09T10:09:50;3.35;;;1.70;;
38909;SDS011;24676;51.360;12.354;2023-05-09T10:12:35;1.08;;;0.98;;
38909;SDS011;24676;51.360;12.354;2023-05-09T10:15:19;2.05;;;1.90;;
38909;SDS011;24676;51.360;12.354;2023-05-09T10:18:04;2.03;;;1.10;;
38909;SDS011;24676;51.360;12.354;2023-05-09T10:20:50;2.33;;;1.35;;
38909;SDS011;24676;51.360;12.354;2023-05-09T10:23:36;2.10;;;1.88;;
38909;SDS011;24676;51.360;12.354;2023-05-09T10:26:25;2.03;;;1.33;;
38909;SDS011;24676;51.360;12.354;2023-05-09T10:29:14;2.55;;;1.63;;
38909;SDS011;24676;51.360;12.354;2023-05-09T10:32:21;1.77;;;1.27;;
38909;SDS011;24676;51.360;12.354;2023-05-09T10:35:09;2.00;;;1.63;;
38909;SDS011;24676;51.360;12.354;2023-05-09T10:37:56;3.67;;;1.83;;
38909;SDS011;24676;51.360;12.354;2023-05-09T10:40:40;3.08;;;1.40;;
38909;SDS011;24676;51.360;12.354;2023-05-09T10:43:24;1.23;;;1.13;;
38909;SDS011;24676;51.360;12.354;2023-05-09T10:46:10;0.98;;;0.98;;
38909;SDS011;24676;51.360;12.354;2023-05-09T10:48:55;1.83;;;1.30;;
38909;SDS011;24676;51.360;12.354;2023-05-09T10:51:40;2.08;;;1.58;;
38909;SDS011;24676;51.360;12.354;2023-05-09T10:54:28;1.50;;;1.13;;
38909;SDS011;24676;51.360;12.354;2023-05-09T10:57:18;1.20;;;1.10;;
38909;SDS011;24676;51.360;12.354;2023-05-09T11:00:03;0.80;;;0.73;;
38909;SDS011;24676;51.360;12.354;2023-05-09T11:03:04;1.33;;;1.20;;
38909;SDS011;24676;51.360;12.354;2023-05-09T11:05:51;1.77;;;1.65;;
38909;SDS011;24676;51.360;12.354;2023-05-09T11:08:40;1.08;;;1.08;;
38909;SDS011;24676;51.360;12.354;2023-05-09T11:11:24;2.80;;;1.15;;
38909;SDS011;24676;51.360;12.354;2023-05-09T11:14:08;1.45;;;1.27;;
38909;SDS011;24676;51.360;12.354;2023-05-09T11:17:44;2.53;;;1.10;;
38909;SDS011;24676;51.360;12.354;2023-05-09T11:20:21;2.65;;;1.35;;
38909;SDS011;24676;51.360;12.354;2023-05-09T11:23:11;1.17;;;1.10;;
38909;SDS011;24676;51.360;12.354;2023-05-09T11:26:03;1.00;;;0.90;;
38909;SDS011;24676;51.360;12.354;2023-05-09T11:28:52;1.27;;;1.17;;
38909;SDS011;24676;51.360;12.354;2023-05-09T11:31:37;2.17;;;1.17;;
38909;SDS011;24676;51.360;12.354;2023-05-09T11:34:48;2.25;;;1.42;;
38909;SDS011;24676;51.360;12.354;2023-05-09T11:37:32;0.80;;;0.80;;
38909;SDS011;24676;51.360;12.354;2023-05-09T11:40:22;3.00;;;1.00;;
38909;SDS011;24676;51.360;12.354;2023-05-09T11:43:07;2.47;;;1.73;;
38909;SDS011;24676;51.360;12.354;2023-05-09T11:45:51;1.42;;;1.25;;
38909;SDS011;24676;51.360;12.354;2023-05-09T11:48:37;0.95;;;0.95;;
38909;SDS011;24676;51.360;12.354;2023-05-09T11:51:22;2.15;;;1.13;;
38909;SDS011;24676;51.360;12.354;2023-05-09T11:54:07;3.08;;;0.98;;
38909;SDS011;24676;51.360;12.354;2023-05-09T11:56:53;2.85;;;0.85;;
38909;SDS011;24676;51.360;12.354;2023-05-09T11:59:37;1.52;;;1.10;;
38909;SDS011;24676;51.360;12.354;2023-05-09T12:02:21;1.92;;;1.20;;
38909;SDS011;24676;51.360;12.354;2023-05-09T12:05:10;1.02;;;0.80;;
38909;SDS011;24676;51.360;12.354;2023-05-09T12:08:01;2.35;;;1.25;;
38909;SDS011;24676;51.360;12.354;2023-05-09T12:10:49;4.18;;;1.35;;
38909;SDS011;24676;51.360;12.354;2023-05-09T12:13:34;1.20;;;0.98;;
38909;SDS011;24676;51.360;12.354;2023-05-09T12:16:18;1.77;;;1.23;;
38909;SDS011;24676;51.360;12.354;2023-05-09T12:19:03;0.73;;;0.55;;
38909;SDS011;24676;51.360;12.354;2023-05-09T12:21:48;3.08;;;1.08;;
38909;SDS011;24676;51.360;12.354;2023-05-09T12:24:33;1.02;;;0.88;;
38909;SDS011;24676;51.360;12.354;2023-05-09T12:27:19;4.00;;;1.58;;
38909;SDS011;24676;51.360;12.354;2023-05-09T12:30:04;1.65;;;0.90;;
38909;SDS011;24676;51.360;12.354;2023-05-09T12:32:52;1.02;;;0.88;;
38909;SDS011;24676;51.360;12.354;2023-05-09T12:35:38;1.17;;;1.08;;
38909;SDS011;24676;51.360;12.354;2023-05-09T12:38:22;2.67;;;1.02;;
38909;SDS011;24676;51.360;12.354;2023-05-09T12:41:07;2.13;;;1.10;;
38909;SDS011;24676;51.360;12.354;2023-05-09T12:43:53;4.03;;;1.42;;
38909;SDS011;24676;51.360;12.354;2023-05-09T12:46:37;1.85;;;0.95;;
38909;SDS011;24676;51.360;12.354;2023-05-09T12:49:21;8.43;;;1.08;;
38909;SDS011;24676;51.360;12.354;2023-05-09T12:52:15;1.25;;;1.15;;
38909;SDS011;24676;51.360;12.354;2023-05-09T12:55:07;2.78;;;1.00;;
38909;SDS011;24676;51.360;12.354;2023-05-09T12:58:00;1.55;;;1.45;;
38909;SDS011;24676;51.360;12.354;2023-05-09T13:03:30;3.13;;;1.13;;
38909;SDS011;24676;51.360;12.354;2023-05-09T13:06:20;2.67;;;1.63;;
38909;SDS011;24676;51.360;12.354;2023-05-09T13:09:06;0.77;;;0.77;;
38909;SDS011;24676;51.360;12.354;2023-05-09T13:11:53;5.88;;;1.33;;
38909;SDS011;24676;51.360;12.354;2023-05-09T13:14:38;2.33;;;1.40;;
38909;SDS011;24676;51.360;12.354;2023-05-09T13:17:23;2.63;;;1.10;;
38909;SDS011;24676;51.360;12.354;2023-05-09T13:20:07;1.02;;;0.80;;
38909;SDS011;24676;51.360;12.354;2023-05-09T13:22:52;2.25;;;1.00;;
38909;SDS011;24676;51.360;12.354;2023-05-09T13:25:36;1.95;;;1.40;;
38909;SDS011;24676;51.360;12.354;2023-05-09T13:28:20;6.93;;;1.13;;
38909;SDS011;24676;51.360;12.354;2023-05-09T13:31:05;2.40;;;1.13;;
38909;SDS011;24676;51.360;12.354;2023-05-09T13:33:50;2.03;;;0.65;;
38909;SDS011;24676;51.360;12.354;2023-05-09T13:36:35;0.93;;;0.88;;
38909;SDS011;24676;51.360;12.354;2023-05-09T13:39:19;0.80;;;0.65;;
38909;SDS011;24676;51.360;12.354;2023-05-09T13:42:06;1.83;;;1.08;;
38909;SDS011;24676;51.360;12.354;2023-05-09T13:44:51;7.15;;;0.90;;
38909;SDS011;24676;51.360;12.354;2023-05-09T13:47:36;1.55;;;1.17;;
38909;SDS011;24676;51.360;12.354;2023-05-09T13:50:20;0.50;;;0.50;;
38909;SDS011;24676;51.360;12.354;2023-05-09T13:53:05;0.65;;;0.60;;
38909;SDS011;24676;51.360;12.354;2023-05-09T13:55:49;1.90;;;1.20;;
38909;SDS011;24676;51.360;12.354;2023-05-09T13:58:34;1.30;;;0.85;;
38909;SDS011;24676;51.360;12.354;2023-05-09T14:01:19;1.48;;;0.65;;
38909;SDS011;24676;51.360;12.354;2023-05-09T14:04:03;1.30;;;0.63;;
38909;SDS011;24676;51.360;12.354;2023-05-09T14:06:47;0.70;;;0.70;;
38909;SDS011;24676;51.360;12.354;2023-05-09T14:09:32;0.90;;;0.90;;
38909;SDS011;24676;51.360;12.354;2023-05-09T14:12:22;0.50;;;0.50;;
38909;SDS011;24676;51.360;12.354;2023-05-09T14:15:06;2.20;;;0.73;;
38909;SDS011;24676;51.360;12.354;2023-05-09T14:17:51;3.95;;;0.75;;
38909;SDS011;24676;51.360;12.354;2023-05-09T14:20:35;1.05;;;0.95;;
38909;SDS011;24676;51.360;12.354;2023-05-09T14:23:20;0.80;;;0.80;;
38909;SDS011;24676;51.360;12.354;2023-05-09T14:26:04;1.25;;;0.40;;
38909;SDS011;24676;51.360;12.354;2023-05-09T14:28:49;0.40;;;0.40;;
38909;SDS011;24676;51.360;12.354;2023-05-09T14:31:33;3.63;;;0.70;;
38909;SDS011;24676;51.360;12.354;2023-05-09T14:34:17;0.95;;;0.88;;
38909;SDS011;24676;51.360;12.354;2023-05-09T14:37:01;0.88;;;0.85;;
38909;SDS011;24676;51.360;12.354;2023-05-09T14:39:46;0.47;;;0.40;;
38909;SDS011;24676;51.360;12.354;2023-05-09T14:42:31;3.42;;;0.65;;
38909;SDS011;24676;51.360;12.354;2023-05-09T14:45:16;1.33;;;0.90;;
38909;SDS011;24676;51.360;12.354;2023-05-09T14:48:01;0.45;;;0.45;;
38909;SDS011;24676;51.360;12.354;2023-05-09T14:50:46;0.25;;;0.25;;
38909;SDS011;24676;51.360;12.354;2023-05-09T14:53:32;0.63;;;0.63;;
38909;SDS011;24676;51.360;12.354;2023-05-09T14:56:18;0.52;;;0.40;;
38909;SDS011;24676;51.360;12.354;2023-05-09T14:59:02;0.52;;;0.52;;
38909;SDS011;24676;51.360;12.354;2023-05-09T15:01:47;8.55;;;0.80;;
38909;SDS011;24676;51.360;12.354;2023-05-09T15:04:33;9.35;;;1.17;;
38909;SDS011;24676;51.360;12.354;2023-05-09T15:07:17;2.45;;;0.50;;
38909;SDS011;24676;51.360;12.354;2023-05-09T15:10:01;1.58;;;0.80;;
38909;SDS011;24676;51.360;12.354;2023-05-09T15:12:46;0.80;;;0.80;;
38909;SDS011;24676;51.360;12.354;2023-05-09T15:15:30;0.85;;;0.55;;
38909;SDS011;24676;51.360;12.354;2023-05-09T15:18:17;0.75;;;0.47;;
38909;SDS011;24676;51.360;12.354;2023-05-09T15:21:02;1.33;;;0.52;;
38909;SDS011;24676;51.360;12.354;2023-05-09T15:23:47;1.05;;;0.70;;
38909;SDS011;24676;51.360;12.354;2023-05-09T15:26:31;1.50;;;0.47;;
38909;SDS011;24676;51.360;12.354;2023-05-09T15:29:15;1.05;;;0.35;;
38909;SDS011;24676;51.360;12.354;2023-05-09T15:32:00;1.45;;;0.60;;
38909;SDS011;24676;51.360;12.354;2023-05-09T15:34:44;1.08;;;0.63;;
38909;SDS011;24676;51.360;12.354;2023-05-09T15:37:28;1.88;;;1.23;;
38909;SDS011;24676;51.360;12.354;2023-05-09T15:40:13;0.55;;;0.45;;
38909;SDS011;24676;51.360;12.354;2023-05-09T15:42:57;4.97;;;0.68;;
38909;SDS011;24676;51.360;12.354;2023-05-09T15:45:42;1.88;;;1.02;;
38909;SDS011;24676;51.360;12.354;2023-05-09T15:48:29;1.45;;;0.95;;
38909;SDS011;24676;51.360;12.354;2023-05-09T15:51:13;0.65;;;0.35;;
38909;SDS011;24676;51.360;12.354;2023-05-09T15:53:58;1.33;;;0.88;;
38909;SDS011;24676;51.360;12.354;2023-05-09T15:56:43;3.05;;;1.15;;
38909;SDS011;24676;51.360;12.354;2023-05-09T15:59:27;1.27;;;0.82;;
38909;SDS011;24676;51.360;12.354;2023-05-09T16:02:11;2.75;;;1.25;;
38909;SDS011;24676;51.360;12.354;2023-05-09T16:04:55;1.23;;;0.70;;
38909;SDS011;24676;51.360;12.354;2023-05-09T16:07:43;0.90;;;0.90;;
38909;SDS011;24676;51.360;12.354;2023-05-09T16:10:28;0.60;;;0.60;;
38909;SDS011;24676;51.360;12.354;2023-05-09T16:13:13;2.75;;;1.73;;
38909;SDS011;24676;51.360;12.354;2023-05-09T16:16:00;0.75;;;0.65;;
38909;SDS011;24676;51.360;12.354;2023-05-09T16:18:44;1.02;;;0.73;;
38909;SDS011;24676;51.360;12.354;2023-05-09T16:21:29;0.90;;;0.90;;
38909;SDS011;24676;51.360;12.354;2023-05-09T16:24:15;0.95;;;0.77;;
38909;SDS011;24676;51.360;12.354;2023-05-09T16:26:59;1.42;;;0.95;;
38909;SDS011;24676;51.360;12.354;2023-05-09T16:29:43;2.25;;;1.00;;
38909;SDS011;24676;51.360;12.354;2023-05-09T16:32:27;3.55;;;1.15;;
38909;SDS011;24676;51.360;12.354;2023-05-09T16:35:12;1.65;;;0.80;;
38909;SDS011;24676;51.360;12.354;2023-05-09T16:37:57;1.38;;;0.95;;
38909;SDS011;24676;51.360;12.354;2023-05-09T16:40:41;0.90;;;0.65;;
38909;SDS011;24676;51.360;12.354;2023-05-09T16:43:26;2.75;;;0.77;;
38909;SDS011;24676;51.360;12.354;2023-05-09T16:46:10;1.83;;;1.13;;
38909;SDS011;24676;51.360;12.354;2023-05-09T16:48:55;1.10;;;0.98;;
38909;SDS011;24676;51.360;12.354;2023-05-09T16:51:40;1.73;;;1.10;;
38909;SDS011;24676;51.360;12.354;2023-05-09T16:54:24;1.48;;;1.00;;
38909;SDS011;24676;51.360;12.354;2023-05-09T16:57:08;1.48;;;1.25;;
38909;SDS011;24676;51.360;12.354;2023-05-09T16:59:52;1.38;;;1.27;;
38909;SDS011;24676;51.360;12.354;2023-05-09T17:02:37;1.50;;;1.35;;
38909;SDS011;24676;51.360;12.354;2023-05-09T17:05:22;2.35;;;1.27;;
38909;SDS011;24676;51.360;12.354;2023-05-09T17:08:06;4.80;;;2.35;;
38909;SDS011;24676;51.360;12.354;2023-05-09T17:10:50;3.40;;;1.23;;
38909;SDS011;24676;51.360;12.354;2023-05-09T17:13:35;2.28;;;1.63;;